sensor_id;sensor_type;location;lat;lon;timestamp;P1;durP1;ratioP1;P2;durP2;ratioP2
56013;SDS011;41893;55.868;37.632;2022-08-21T00:00:47;72.53;;;37.25;;
56013;SDS011;41893;55.868;37.632;2022-08-21T00:03:14;68.18;;;36.85;;
56013;SDS011;41893;55.868;37.632;2022-08-21T00:05:41;70.20;;;38.78;;
56013;SDS011;41893;55.868;37.632;2022-08-21T00:08:09;66.88;;;36.85;;
56013;SDS011;41893;55.868;37.632;2022-08-21T00:10:36;82.68;;;37.08;;
56013;SDS011;41893;55.868;37.632;2022-08-21T00:13:05;70.60;;;36.35;;
56013;SDS011;41893;55.868;37.632;2022-08-21T00:15:33;85.88;;;37.80;;
56013;SDS011;41893;55.868;37.632;2022-08-21T00:18:01;84.10;;;41.83;;
56013;SDS011;41893;55.868;37.632;2022-08-21T00:20:28;89.63;;;39.45;;
56013;SDS011;41893;55.868;37.632;2022-08-21T00:22:53;67.75;;;37.50;;
56013;SDS011;41893;55.868;37.632;2022-08-21T00:25:19;69.60;;;36.97;;
56013;SDS011;41893;55.868;37.632;2022-08-21T00:27:49;75.72;;;37.88;;
56013;SDS011;41893;55.868;37.632;2022-08-21T00:30:16;64.07;;;35.88;;
56013;SDS011;41893;55.868;37.632;2022-08-21T00:32:43;69.05;;;34.70;;
56013;SDS011;41893;55.868;37.632;2022-08-21T00:35:12;79.00;;;39.88;;
56013;SDS011;41893;55.868;37.632;2022-08-21T00:37:40;73.72;;;38.25;;
56013;SDS011;41893;55.868;37.632;2022-08-21T00:40:08;68.88;;;36.33;;
56013;SDS011;41893;55.868;37.632;2022-08-21T00:42:37;69.25;;;36.30;;
56013;SDS011;41893;55.868;37.632;2022-08-21T00:45:04;61.63;;;34.30;;
56013;SDS011;41893;55.868;37.632;2022-08-21T00:47:30;60.90;;;35.40;;
56013;SDS011;41893;55.868;37.632;2022-08-21T00:49:56;54.92;;;34.88;;
56013;SDS011;41893;55.868;37.632;2022-08-21T00:52:22;73.47;;;34.35;;
56013;SDS011;41893;55.868;37.632;2022-08-21T00:54:52;65.85;;;35.65;;
56013;SDS011;41893;55.868;37.632;2022-08-21T00:57:24;61.03;;;33.65;;
56013;SDS011;41893;55.868;37.632;2022-08-21T00:59:53;66.65;;;35.45;;
56013;SDS011;41893;55.868;37.632;2022-08-21T01:02:24;63.08;;;35.83;;
56013;SDS011;41893;55.868;37.632;2022-08-21T01:04:49;66.13;;;35.05;;
56013;SDS011;41893;55.868;37.632;2022-08-21T01:07:16;71.47;;;36.00;;
56013;SDS011;41893;55.868;37.632;2022-08-21T01:09:42;74.68;;;35.30;;
56013;SDS011;41893;55.868;37.632;2022-08-21T01:12:10;77.57;;;34.33;;
56013;SDS011;41893;55.868;37.632;2022-08-21T01:14:37;75.57;;;35.97;;
56013;SDS011;41893;55.868;37.632;2022-08-21T01:17:04;64.95;;;35.60;;
56013;SDS011;41893;55.868;37.632;2022-08-21T01:19:31;73.68;;;35.05;;
56013;SDS011;41893;55.868;37.632;2022-08-21T01:21:59;74.10;;;35.33;;
56013;SDS011;41893;55.868;37.632;2022-08-21T01:24:25;66.88;;;34.92;;
56013;SDS011;41893;55.868;37.632;2022-08-21T01:26:51;70.10;;;35.42;;
56013;SDS011;41893;55.868;37.632;2022-08-21T01:29:34;72.32;;;33.90;;
56013;SDS011;41893;55.868;37.632;2022-08-21T01:32:07;60.65;;;33.28;;
56013;SDS011;41893;55.868;37.632;2022-08-21T01:34:36;72.15;;;38.97;;
56013;SDS011;41893;55.868;37.632;2022-08-21T01:37:03;62.40;;;34.05;;
56013;SDS011;41893;55.868;37.632;2022-08-21T01:39:30;72.28;;;34.38;;
56013;SDS011;41893;55.868;37.632;2022-08-21T01:41:56;72.50;;;35.10;;
56013;SDS011;41893;55.868;37.632;2022-08-21T01:44:22;63.47;;;34.05;;
56013;SDS011;41893;55.868;37.632;2022-08-21T01:46:48;65.38;;;35.50;;
56013;SDS011;41893;55.868;37.632;2022-08-21T01:49:14;56.75;;;34.45;;
56013;SDS011;41893;55.868;37.632;2022-08-21T01:51:41;54.25;;;31.83;;
56013;SDS011;41893;55.868;37.632;2022-08-21T01:54:07;70.18;;;33.85;;
56013;SDS011;41893;55.868;37.632;2022-08-21T01:56:37;72.28;;;35.28;;
56013;SDS011;41893;55.868;37.632;2022-08-21T01:59:04;66.78;;;35.40;;
56013;SDS011;41893;55.868;37.632;2022-08-21T02:01:30;72.03;;;33.75;;
56013;SDS011;41893;55.868;37.632;2022-08-21T02:03:55;62.13;;;33.00;;
56013;SDS011;41893;55.868;37.632;2022-08-21T02:06:21;64.78;;;34.58;;
56013;SDS011;41893;55.868;37.632;2022-08-21T02:08:47;71.57;;;34.22;;
56013;SDS011;41893;55.868;37.632;2022-08-21T02:11:13;71.88;;;36.17;;
56013;SDS011;41893;55.868;37.632;2022-08-21T02:13:40;60.95;;;35.80;;
56013;SDS011;41893;55.868;37.632;2022-08-21T02:16:05;69.90;;;35.72;;
56013;SDS011;41893;55.868;37.632;2022-08-21T02:18:32;78.45;;;36.70;;
56013;SDS011;41893;55.868;37.632;2022-08-21T02:20:59;76.53;;;35.50;;
56013;SDS011;41893;55.868;37.632;2022-08-21T02:23:24;64.03;;;36.50;;
56013;SDS011;41893;55.868;37.632;2022-08-21T02:25:50;73.82;;;35.78;;
56013;SDS011;41893;55.868;37.632;2022-08-21T02:28:16;64.68;;;36.20;;
56013;SDS011;41893;55.868;37.632;2022-08-21T02:30:44;71.50;;;35.83;;
56013;SDS011;41893;55.868;37.632;2022-08-21T02:33:12;77.28;;;40.70;;
56013;SDS011;41893;55.868;37.632;2022-08-21T02:35:40;77.60;;;37.20;;
56013;SDS011;41893;55.868;37.632;2022-08-21T02:38:09;73.00;;;37.67;;
56013;SDS011;41893;55.868;37.632;2022-08-21T02:40:38;71.07;;;38.03;;
56013;SDS011;41893;55.868;37.632;2022-08-21T02:43:05;75.65;;;38.38;;
56013;SDS011;41893;55.868;37.632;2022-08-21T02:45:32;87.55;;;40.03;;
56013;SDS011;41893;55.868;37.632;2022-08-21T02:48:02;69.43;;;39.08;;
56013;SDS011;41893;55.868;37.632;2022-08-21T02:50:31;72.23;;;40.23;;
56013;SDS011;41893;55.868;37.632;2022-08-21T02:52:59;74.75;;;42.25;;
56013;SDS011;41893;55.868;37.632;2022-08-21T02:55:26;74.07;;;40.45;;
56013;SDS011;41893;55.868;37.632;2022-08-21T02:57:53;83.95;;;40.55;;
56013;SDS011;41893;55.868;37.632;2022-08-21T03:00:21;86.85;;;43.03;;
56013;SDS011;41893;55.868;37.632;2022-08-21T03:02:50;91.70;;;43.03;;
56013;SDS011;41893;55.868;37.632;2022-08-21T03:05:17;76.35;;;44.05;;
56013;SDS011;41893;55.868;37.632;2022-08-21T03:07:46;81.70;;;43.85;;
56013;SDS011;41893;55.868;37.632;2022-08-21T03:10:13;77.68;;;37.63;;
56013;SDS011;41893;55.868;37.632;2022-08-21T03:12:40;71.57;;;38.85;;
56013;SDS011;41893;55.868;37.632;2022-08-21T03:15:07;80.00;;;41.67;;
56013;SDS011;41893;55.868;37.632;2022-08-21T03:17:35;79.63;;;41.63;;
56013;SDS011;41893;55.868;37.632;2022-08-21T03:20:02;78.68;;;44.05;;
56013;SDS011;41893;55.868;37.632;2022-08-21T03:22:30;79.80;;;44.50;;
56013;SDS011;41893;55.868;37.632;2022-08-21T03:24:55;88.85;;;49.20;;
56013;SDS011;41893;55.868;37.632;2022-08-21T03:27:22;93.40;;;52.33;;
56013;SDS011;41893;55.868;37.632;2022-08-21T03:29:52;84.18;;;43.58;;
56013;SDS011;41893;55.868;37.632;2022-08-21T03:32:19;94.22;;;51.38;;
56013;SDS011;41893;55.868;37.632;2022-08-21T03:34:45;99.18;;;54.03;;
56013;SDS011;41893;55.868;37.632;2022-08-21T03:37:11;98.63;;;53.45;;
56013;SDS011;41893;55.868;37.632;2022-08-21T03:39:38;93.57;;;52.72;;
56013;SDS011;41893;55.868;37.632;2022-08-21T03:42:04;89.93;;;54.42;;
56013;SDS011;41893;55.868;37.632;2022-08-21T03:44:31;93.35;;;55.33;;
56013;SDS011;41893;55.868;37.632;2022-08-21T03:46:58;102.63;;;56.38;;
56013;SDS011;41893;55.868;37.632;2022-08-21T03:49:24;97.32;;;57.40;;
56013;SDS011;41893;55.868;37.632;2022-08-21T03:51:51;94.72;;;56.05;;
56013;SDS011;41893;55.868;37.632;2022-08-21T03:54:16;95.85;;;57.15;;
56013;SDS011;41893;55.868;37.632;2022-08-21T03:56:42;92.93;;;58.42;;
56013;SDS011;41893;55.868;37.632;2022-08-21T03:59:08;112.35;;;56.58;;
56013;SDS011;41893;55.868;37.632;2022-08-21T04:01:34;104.28;;;59.65;;
56013;SDS011;41893;55.868;37.632;2022-08-21T04:04:00;107.78;;;60.35;;
56013;SDS011;41893;55.868;37.632;2022-08-21T04:06:25;97.10;;;59.47;;
56013;SDS011;41893;55.868;37.632;2022-08-21T04:08:52;97.45;;;59.47;;
56013;SDS011;41893;55.868;37.632;2022-08-21T04:11:18;108.40;;;63.80;;
56013;SDS011;41893;55.868;37.632;2022-08-21T04:13:44;111.13;;;62.15;;
56013;SDS011;41893;55.868;37.632;2022-08-21T04:16:11;107.97;;;61.70;;
56013;SDS011;41893;55.868;37.632;2022-08-21T04:18:38;105.50;;;63.30;;
56013;SDS011;41893;55.868;37.632;2022-08-21T04:21:03;111.93;;;64.47;;
56013;SDS011;41893;55.868;37.632;2022-08-21T04:23:31;117.80;;;63.00;;
56013;SDS011;41893;55.868;37.632;2022-08-21T04:25:57;105.28;;;65.53;;
56013;SDS011;41893;55.868;37.632;2022-08-21T04:28:24;105.90;;;63.65;;
56013;SDS011;41893;55.868;37.632;2022-08-21T04:30:51;113.03;;;65.05;;
56013;SDS011;41893;55.868;37.632;2022-08-21T04:33:18;115.68;;;67.32;;
56013;SDS011;41893;55.868;37.632;2022-08-21T04:35:44;108.22;;;66.90;;
56013;SDS011;41893;55.868;37.632;2022-08-21T04:38:10;116.05;;;69.03;;
56013;SDS011;41893;55.868;37.632;2022-08-21T04:40:36;105.40;;;67.57;;
56013;SDS011;41893;55.868;37.632;2022-08-21T04:43:06;110.60;;;64.65;;
56013;SDS011;41893;55.868;37.632;2022-08-21T04:45:41;115.35;;;69.65;;
56013;SDS011;41893;55.868;37.632;2022-08-21T04:48:10;104.68;;;66.93;;
56013;SDS011;41893;55.868;37.632;2022-08-21T04:53:12;114.82;;;67.53;;
56013;SDS011;41893;55.868;37.632;2022-08-21T04:55:42;107.45;;;64.53;;
56013;SDS011;41893;55.868;37.632;2022-08-21T04:58:09;112.95;;;67.45;;
56013;SDS011;41893;55.868;37.632;2022-08-21T05:00:38;110.80;;;64.50;;
56013;SDS011;41893;55.868;37.632;2022-08-21T05:03:04;120.93;;;65.70;;
56013;SDS011;41893;55.868;37.632;2022-08-21T05:05:33;109.70;;;67.35;;
56013;SDS011;41893;55.868;37.632;2022-08-21T05:08:00;112.10;;;65.05;;
56013;SDS011;41893;55.868;37.632;2022-08-21T05:10:27;108.57;;;66.07;;
56013;SDS011;41893;55.868;37.632;2022-08-21T05:12:54;102.82;;;65.35;;
56013;SDS011;41893;55.868;37.632;2022-08-21T05:15:20;112.57;;;66.70;;
56013;SDS011;41893;55.868;37.632;2022-08-21T05:17:46;122.15;;;66.00;;
56013;SDS011;41893;55.868;37.632;2022-08-21T05:20:13;111.93;;;68.65;;
56013;SDS011;41893;55.868;37.632;2022-08-21T05:22:39;111.78;;;66.32;;
56013;SDS011;41893;55.868;37.632;2022-08-21T05:25:06;106.35;;;68.00;;
56013;SDS011;41893;55.868;37.632;2022-08-21T05:27:32;113.47;;;66.22;;
56013;SDS011;41893;55.868;37.632;2022-08-21T05:29:58;111.53;;;69.22;;
56013;SDS011;41893;55.868;37.632;2022-08-21T05:32:24;108.03;;;64.40;;
56013;SDS011;41893;55.868;37.632;2022-08-21T05:34:50;108.97;;;67.35;;
56013;SDS011;41893;55.868;37.632;2022-08-21T05:37:16;117.53;;;66.93;;
56013;SDS011;41893;55.868;37.632;2022-08-21T05:39:42;111.88;;;68.75;;
56013;SDS011;41893;55.868;37.632;2022-08-21T05:42:07;110.60;;;66.88;;
56013;SDS011;41893;55.868;37.632;2022-08-21T05:44:33;122.40;;;68.93;;
56013;SDS011;41893;55.868;37.632;2022-08-21T05:47:06;114.43;;;65.40;;
56013;SDS011;41893;55.868;37.632;2022-08-21T05:49:33;117.47;;;65.00;;
56013;SDS011;41893;55.868;37.632;2022-08-21T05:52:00;130.30;;;70.35;;
56013;SDS011;41893;55.868;37.632;2022-08-21T05:54:26;117.90;;;66.15;;
56013;SDS011;41893;55.868;37.632;2022-08-21T05:56:52;109.00;;;63.80;;
56013;SDS011;41893;55.868;37.632;2022-08-21T05:59:18;106.43;;;65.07;;
56013;SDS011;41893;55.868;37.632;2022-08-21T06:01:44;106.60;;;64.00;;
56013;SDS011;41893;55.868;37.632;2022-08-21T06:04:10;102.75;;;63.50;;
56013;SDS011;41893;55.868;37.632;2022-08-21T06:06:37;98.80;;;64.72;;
56013;SDS011;41893;55.868;37.632;2022-08-21T06:09:03;110.25;;;65.95;;
56013;SDS011;41893;55.868;37.632;2022-08-21T06:11:30;107.40;;;63.55;;
56013;SDS011;41893;55.868;37.632;2022-08-21T06:13:57;106.50;;;62.28;;
56013;SDS011;41893;55.868;37.632;2022-08-21T06:16:23;100.25;;;60.58;;
56013;SDS011;41893;55.868;37.632;2022-08-21T06:18:49;105.15;;;61.97;;
56013;SDS011;41893;55.868;37.632;2022-08-21T06:21:15;118.53;;;60.20;;
56013;SDS011;41893;55.868;37.632;2022-08-21T06:23:41;94.90;;;59.45;;
56013;SDS011;41893;55.868;37.632;2022-08-21T06:26:08;101.20;;;59.72;;
56013;SDS011;41893;55.868;37.632;2022-08-21T06:28:36;103.85;;;59.70;;
56013;SDS011;41893;55.868;37.632;2022-08-21T06:31:09;103.85;;;59.05;;
56013;SDS011;41893;55.868;37.632;2022-08-21T06:33:42;99.72;;;60.97;;
56013;SDS011;41893;55.868;37.632;2022-08-21T06:36:08;99.05;;;58.95;;
56013;SDS011;41893;55.868;37.632;2022-08-21T06:38:35;100.30;;;58.47;;
56013;SDS011;41893;55.868;37.632;2022-08-21T06:41:01;99.25;;;58.17;;
56013;SDS011;41893;55.868;37.632;2022-08-21T06:43:27;96.30;;;56.80;;
56013;SDS011;41893;55.868;37.632;2022-08-21T06:45:53;96.43;;;56.95;;
56013;SDS011;41893;55.868;37.632;2022-08-21T06:48:19;88.88;;;55.53;;
56013;SDS011;41893;55.868;37.632;2022-08-21T06:50:45;102.78;;;55.85;;
56013;SDS011;41893;55.868;37.632;2022-08-21T06:53:12;96.47;;;54.92;;
56013;SDS011;41893;55.868;37.632;2022-08-21T06:55:39;89.70;;;53.92;;
56013;SDS011;41893;55.868;37.632;2022-08-21T06:58:07;94.28;;;54.33;;
56013;SDS011;41893;55.868;37.632;2022-08-21T07:00:34;82.80;;;52.55;;
56013;SDS011;41893;55.868;37.632;2022-08-21T07:03:03;93.28;;;54.70;;
56013;SDS011;41893;55.868;37.632;2022-08-21T07:05:29;86.25;;;50.72;;
56013;SDS011;41893;55.868;37.632;2022-08-21T07:07:55;95.03;;;52.10;;
56013;SDS011;41893;55.868;37.632;2022-08-21T07:10:22;93.65;;;52.35;;
56013;SDS011;41893;55.868;37.632;2022-08-21T07:12:52;91.75;;;49.35;;
56013;SDS011;41893;55.868;37.632;2022-08-21T07:15:20;96.60;;;54.88;;
56013;SDS011;41893;55.868;37.632;2022-08-21T07:17:45;103.38;;;51.88;;
56013;SDS011;41893;55.868;37.632;2022-08-21T07:20:11;82.53;;;48.97;;
56013;SDS011;41893;55.868;37.632;2022-08-21T07:22:37;91.63;;;50.45;;
56013;SDS011;41893;55.868;37.632;2022-08-21T07:25:04;85.88;;;50.58;;
56013;SDS011;41893;55.868;37.632;2022-08-21T07:27:31;89.32;;;47.08;;
56013;SDS011;41893;55.868;37.632;2022-08-21T07:29:57;88.47;;;48.65;;
56013;SDS011;41893;55.868;37.632;2022-08-21T07:32:23;87.90;;;48.20;;
56013;SDS011;41893;55.868;37.632;2022-08-21T07:34:49;102.18;;;49.45;;
56013;SDS011;41893;55.868;37.632;2022-08-21T07:37:15;84.55;;;47.28;;
56013;SDS011;41893;55.868;37.632;2022-08-21T07:39:40;75.95;;;44.28;;
56013;SDS011;41893;55.868;37.632;2022-08-21T07:42:06;91.18;;;45.90;;
56013;SDS011;41893;55.868;37.632;2022-08-21T07:44:32;72.47;;;44.78;;
56013;SDS011;41893;55.868;37.632;2022-08-21T07:47:00;80.93;;;43.50;;
56013;SDS011;41893;55.868;37.632;2022-08-21T07:49:27;88.57;;;46.10;;
56013;SDS011;41893;55.868;37.632;2022-08-21T07:51:53;87.65;;;47.17;;
56013;SDS011;41893;55.868;37.632;2022-08-21T07:54:19;100.35;;;42.35;;
56013;SDS011;41893;55.868;37.632;2022-08-21T07:56:44;85.43;;;40.15;;
56013;SDS011;41893;55.868;37.632;2022-08-21T07:59:10;80.20;;;38.55;;
56013;SDS011;41893;55.868;37.632;2022-08-21T08:01:37;90.28;;;40.15;;
56013;SDS011;41893;55.868;37.632;2022-08-21T08:04:03;80.70;;;36.20;;
56013;SDS011;41893;55.868;37.632;2022-08-21T08:06:29;79.22;;;38.38;;
56013;SDS011;41893;55.868;37.632;2022-08-21T08:08:55;76.20;;;39.70;;
56013;SDS011;41893;55.868;37.632;2022-08-21T08:11:21;81.60;;;38.58;;
56013;SDS011;41893;55.868;37.632;2022-08-21T08:13:49;69.72;;;38.22;;
56013;SDS011;41893;55.868;37.632;2022-08-21T08:16:16;75.97;;;39.83;;
56013;SDS011;41893;55.868;37.632;2022-08-21T08:18:43;64.78;;;39.15;;
56013;SDS011;41893;55.868;37.632;2022-08-21T08:21:10;67.05;;;35.75;;
56013;SDS011;41893;55.868;37.632;2022-08-21T08:23:37;75.97;;;36.72;;
56013;SDS011;41893;55.868;37.632;2022-08-21T08:26:02;75.68;;;36.08;;
56013;SDS011;41893;55.868;37.632;2022-08-21T08:28:29;77.57;;;37.42;;
56013;SDS011;41893;55.868;37.632;2022-08-21T08:30:57;96.45;;;35.40;;
56013;SDS011;41893;55.868;37.632;2022-08-21T08:33:24;72.55;;;34.05;;
56013;SDS011;41893;55.868;37.632;2022-08-21T08:35:50;75.30;;;36.30;;
56013;SDS011;41893;55.868;37.632;2022-08-21T08:38:17;78.18;;;36.08;;
56013;SDS011;41893;55.868;37.632;2022-08-21T08:40:47;67.22;;;34.97;;
56013;SDS011;41893;55.868;37.632;2022-08-21T08:43:35;67.25;;;37.17;;
56013;SDS011;41893;55.868;37.632;2022-08-21T08:46:02;66.55;;;34.72;;
56013;SDS011;41893;55.868;37.632;2022-08-21T08:48:35;68.77;;;35.73;;
56013;SDS011;41893;55.868;37.632;2022-08-21T08:51:04;58.55;;;32.38;;
56013;SDS011;41893;55.868;37.632;2022-08-21T08:53:58;53.65;;;29.60;;
56013;SDS011;41893;55.868;37.632;2022-08-21T08:56:29;55.75;;;29.00;;
56013;SDS011;41893;55.868;37.632;2022-08-21T08:59:00;59.15;;;29.17;;
56013;SDS011;41893;55.868;37.632;2022-08-21T09:01:32;61.72;;;30.13;;
56013;SDS011;41893;55.868;37.632;2022-08-21T09:03:58;63.50;;;32.85;;
56013;SDS011;41893;55.868;37.632;2022-08-21T09:06:37;64.53;;;31.25;;
56013;SDS011;41893;55.868;37.632;2022-08-21T09:12:25;60.65;;;30.83;;
56013;SDS011;41893;55.868;37.632;2022-08-21T09:25:36;55.13;;;28.58;;
56013;SDS011;41893;55.868;37.632;2022-08-21T09:28:21;52.95;;;27.92;;
56013;SDS011;41893;55.868;37.632;2022-08-21T09:30:46;50.72;;;28.42;;
56013;SDS011;41893;55.868;37.632;2022-08-21T09:33:12;75.05;;;30.08;;
56013;SDS011;41893;55.868;37.632;2022-08-21T09:35:48;64.38;;;29.50;;
56013;SDS011;41893;55.868;37.632;2022-08-21T09:38:24;52.38;;;30.02;;
56013;SDS011;41893;55.868;37.632;2022-08-21T09:43:31;68.47;;;30.35;;
56013;SDS011;41893;55.868;37.632;2022-08-21T09:48:42;52.53;;;29.42;;
56013;SDS011;41893;55.868;37.632;2022-08-21T09:51:12;64.50;;;29.15;;
56013;SDS011;41893;55.868;37.632;2022-08-21T09:53:44;71.57;;;28.77;;
56013;SDS011;41893;55.868;37.632;2022-08-21T10:01:49;51.17;;;28.02;;
56013;SDS011;41893;55.868;37.632;2022-08-21T10:04:26;59.30;;;28.90;;
56013;SDS011;41893;55.868;37.632;2022-08-21T10:07:05;61.55;;;27.35;;
56013;SDS011;41893;55.868;37.632;2022-08-21T10:09:32;54.85;;;27.48;;
56013;SDS011;41893;55.868;37.632;2022-08-21T10:19:50;51.30;;;22.77;;
56013;SDS011;41893;55.868;37.632;2022-08-21T10:22:50;66.97;;;22.08;;
56013;SDS011;41893;55.868;37.632;2022-08-21T10:25:39;49.83;;;23.83;;
56013;SDS011;41893;55.868;37.632;2022-08-21T10:28:19;56.10;;;22.92;;
56013;SDS011;41893;55.868;37.632;2022-08-21T10:33:41;58.28;;;24.77;;
56013;SDS011;41893;55.868;37.632;2022-08-21T10:36:33;54.28;;;24.80;;
56013;SDS011;41893;55.868;37.632;2022-08-21T10:42:05;52.50;;;24.80;;
56013;SDS011;41893;55.868;37.632;2022-08-21T10:56:25;51.90;;;22.35;;
56013;SDS011;41893;55.868;37.632;2022-08-21T11:01:47;61.92;;;20.02;;
56013;SDS011;41893;55.868;37.632;2022-08-21T11:04:25;60.95;;;19.42;;
56013;SDS011;41893;55.868;37.632;2022-08-21T11:06:53;36.38;;;17.75;;
56013;SDS011;41893;55.868;37.632;2022-08-21T11:09:27;65.03;;;18.73;;
56013;SDS011;41893;55.868;37.632;2022-08-21T11:12:03;44.97;;;19.42;;
56013;SDS011;41893;55.868;37.632;2022-08-21T11:14:51;51.80;;;18.90;;
56013;SDS011;41893;55.868;37.632;2022-08-21T11:17:40;48.38;;;18.55;;
56013;SDS011;41893;55.868;37.632;2022-08-21T11:20:15;52.28;;;18.75;;
56013;SDS011;41893;55.868;37.632;2022-08-21T11:23:00;55.35;;;16.52;;
56013;SDS011;41893;55.868;37.632;2022-08-21T11:25:34;54.53;;;15.50;;
56013;SDS011;41893;55.868;37.632;2022-08-21T11:28:04;43.17;;;15.32;;
56013;SDS011;41893;55.868;37.632;2022-08-21T11:34:54;37.58;;;14.73;;
56013;SDS011;41893;55.868;37.632;2022-08-21T11:37:06;45.15;;;16.17;;
56013;SDS011;41893;55.868;37.632;2022-08-21T11:50:31;62.67;;;20.20;;
56013;SDS011;41893;55.868;37.632;2022-08-21T11:53:00;80.78;;;19.23;;
56013;SDS011;41893;55.868;37.632;2022-08-21T11:58:22;44.90;;;17.20;;
56013;SDS011;41893;55.868;37.632;2022-08-21T12:01:05;67.75;;;17.02;;
56013;SDS011;41893;55.868;37.632;2022-08-21T12:03:33;54.17;;;16.88;;
56013;SDS011;41893;55.868;37.632;2022-08-21T12:06:06;58.90;;;17.50;;
56013;SDS011;41893;55.868;37.632;2022-08-21T12:08:36;62.58;;;18.25;;
56013;SDS011;41893;55.868;37.632;2022-08-21T12:11:22;51.03;;;17.35;;
56013;SDS011;41893;55.868;37.632;2022-08-21T12:19:04;60.60;;;22.23;;
56013;SDS011;41893;55.868;37.632;2022-08-21T12:21:30;72.05;;;22.27;;
56013;SDS011;41893;55.868;37.632;2022-08-21T12:24:17;73.18;;;21.65;;
56013;SDS011;41893;55.868;37.632;2022-08-21T12:26:50;55.85;;;20.70;;
56013;SDS011;41893;55.868;37.632;2022-08-21T12:29:31;50.28;;;17.67;;
56013;SDS011;41893;55.868;37.632;2022-08-21T12:32:00;62.47;;;16.33;;
56013;SDS011;41893;55.868;37.632;2022-08-21T12:34:35;51.30;;;14.82;;
56013;SDS011;41893;55.868;37.632;2022-08-21T12:37:14;56.85;;;13.52;;
56013;SDS011;41893;55.868;37.632;2022-08-21T12:39:46;44.65;;;13.00;;
56013;SDS011;41893;55.868;37.632;2022-08-21T12:47:16;41.33;;;13.40;;
56013;SDS011;41893;55.868;37.632;2022-08-21T12:50:05;46.90;;;13.20;;
56013;SDS011;41893;55.868;37.632;2022-08-21T12:52:39;46.75;;;13.38;;
56013;SDS011;41893;55.868;37.632;2022-08-21T12:55:12;61.38;;;14.57;;
56013;SDS011;41893;55.868;37.632;2022-08-21T12:57:41;35.88;;;13.07;;
56013;SDS011;41893;55.868;37.632;2022-08-21T13:00:08;55.22;;;14.23;;
56013;SDS011;41893;55.868;37.632;2022-08-21T13:02:41;47.75;;;14.82;;
56013;SDS011;41893;55.868;37.632;2022-08-21T13:05:16;40.45;;;16.33;;
56013;SDS011;41893;55.868;37.632;2022-08-21T13:08:03;46.58;;;16.75;;
56013;SDS011;41893;55.868;37.632;2022-08-21T13:10:31;41.22;;;16.33;;
56013;SDS011;41893;55.868;37.632;2022-08-21T13:12:59;37.10;;;17.27;;
56013;SDS011;41893;55.868;37.632;2022-08-21T13:15:30;76.40;;;18.23;;
56013;SDS011;41893;55.868;37.632;2022-08-21T13:17:58;38.65;;;15.70;;
56013;SDS011;41893;55.868;37.632;2022-08-21T13:20:37;36.95;;;15.65;;
56013;SDS011;41893;55.868;37.632;2022-08-21T13:23:07;47.40;;;16.60;;
56013;SDS011;41893;55.868;37.632;2022-08-21T13:25:45;28.60;;;16.17;;
56013;SDS011;41893;55.868;37.632;2022-08-21T13:28:11;50.40;;;15.60;;
56013;SDS011;41893;55.868;37.632;2022-08-21T13:30:44;49.40;;;17.60;;
56013;SDS011;41893;55.868;37.632;2022-08-21T13:33:12;70.90;;;18.25;;
56013;SDS011;41893;55.868;37.632;2022-08-21T13:38:19;47.17;;;18.60;;
56013;SDS011;41893;55.868;37.632;2022-08-21T13:40:58;64.57;;;21.67;;
56013;SDS011;41893;55.868;37.632;2022-08-21T13:43:33;47.45;;;22.58;;
56013;SDS011;41893;55.868;37.632;2022-08-21T13:46:01;61.13;;;23.98;;
56013;SDS011;41893;55.868;37.632;2022-08-21T13:48:33;65.60;;;24.58;;
56013;SDS011;41893;55.868;37.632;2022-08-21T13:50:59;55.92;;;25.45;;
56013;SDS011;41893;55.868;37.632;2022-08-21T13:53:31;51.03;;;26.13;;
56013;SDS011;41893;55.868;37.632;2022-08-21T13:56:06;55.60;;;26.10;;
56013;SDS011;41893;55.868;37.632;2022-08-21T13:58:42;68.18;;;29.00;;
56013;SDS011;41893;55.868;37.632;2022-08-21T14:01:21;77.43;;;29.48;;
56013;SDS011;41893;55.868;37.632;2022-08-21T14:03:52;66.93;;;28.97;;
56013;SDS011;41893;55.868;37.632;2022-08-21T14:06:24;82.00;;;29.10;;
56013;SDS011;41893;55.868;37.632;2022-08-21T14:08:58;63.97;;;28.70;;
56013;SDS011;41893;55.868;37.632;2022-08-21T14:11:26;66.75;;;30.38;;
56013;SDS011;41893;55.868;37.632;2022-08-21T14:13:59;67.55;;;29.30;;
56013;SDS011;41893;55.868;37.632;2022-08-21T14:16:40;74.57;;;30.05;;
56013;SDS011;41893;55.868;37.632;2022-08-21T14:19:10;57.20;;;30.13;;
56013;SDS011;41893;55.868;37.632;2022-08-21T14:21:44;66.82;;;32.25;;
56013;SDS011;41893;55.868;37.632;2022-08-21T14:24:14;87.78;;;36.70;;
56013;SDS011;41893;55.868;37.632;2022-08-21T14:27:00;60.00;;;31.70;;
56013;SDS011;41893;55.868;37.632;2022-08-21T14:29:32;69.75;;;31.42;;
56013;SDS011;41893;55.868;37.632;2022-08-21T14:32:07;75.40;;;30.50;;
56013;SDS011;41893;55.868;37.632;2022-08-21T14:34:35;57.60;;;31.85;;
56013;SDS011;41893;55.868;37.632;2022-08-21T14:37:01;59.70;;;30.88;;
56013;SDS011;41893;55.868;37.632;2022-08-21T14:39:26;63.67;;;31.65;;
56013;SDS011;41893;55.868;37.632;2022-08-21T14:41:52;67.47;;;33.15;;
56013;SDS011;41893;55.868;37.632;2022-08-21T14:44:19;60.63;;;33.97;;
56013;SDS011;41893;55.868;37.632;2022-08-21T14:46:45;63.90;;;33.40;;
56013;SDS011;41893;55.868;37.632;2022-08-21T14:49:51;66.22;;;35.10;;
56013;SDS011;41893;55.868;37.632;2022-08-21T14:55:47;57.72;;;35.38;;
56013;SDS011;41893;55.868;37.632;2022-08-21T14:58:33;75.70;;;36.45;;
56013;SDS011;41893;55.868;37.632;2022-08-21T15:01:08;80.30;;;35.78;;
56013;SDS011;41893;55.868;37.632;2022-08-21T15:03:36;84.72;;;36.42;;
56013;SDS011;41893;55.868;37.632;2022-08-21T15:06:03;67.32;;;35.97;;
56013;SDS011;41893;55.868;37.632;2022-08-21T15:08:30;60.72;;;34.13;;
56013;SDS011;41893;55.868;37.632;2022-08-21T15:10:57;72.55;;;35.63;;
56013;SDS011;41893;55.868;37.632;2022-08-21T15:13:24;63.08;;;36.35;;
56013;SDS011;41893;55.868;37.632;2022-08-21T15:15:51;68.28;;;36.10;;
56013;SDS011;41893;55.868;37.632;2022-08-21T15:18:20;72.53;;;37.67;;
56013;SDS011;41893;55.868;37.632;2022-08-21T15:20:48;70.78;;;36.00;;
56013;SDS011;41893;55.868;37.632;2022-08-21T15:23:14;75.85;;;42.28;;
56013;SDS011;41893;55.868;37.632;2022-08-21T15:25:42;73.53;;;43.97;;
56013;SDS011;41893;55.868;37.632;2022-08-21T15:28:09;80.05;;;43.67;;
56013;SDS011;41893;55.868;37.632;2022-08-21T15:30:37;77.68;;;45.67;;
56013;SDS011;41893;55.868;37.632;2022-08-21T15:33:05;80.32;;;44.80;;
56013;SDS011;41893;55.868;37.632;2022-08-21T15:35:31;75.78;;;46.70;;
56013;SDS011;41893;55.868;37.632;2022-08-21T15:37:57;78.43;;;48.03;;
56013;SDS011;41893;55.868;37.632;2022-08-21T15:40:23;81.70;;;50.20;;
56013;SDS011;41893;55.868;37.632;2022-08-21T15:42:50;87.30;;;49.55;;
56013;SDS011;41893;55.868;37.632;2022-08-21T15:45:21;88.60;;;49.97;;
56013;SDS011;41893;55.868;37.632;2022-08-21T15:47:49;88.90;;;51.67;;